sensor_id;sensor_type;location;lat;lon;timestamp;P1;durP1;ratioP1;P2;durP2;ratioP2
10226;SDS011;15634;48.766;2.272;2023-02-28T00:01:23;14.05;;;8.43;;
10226;SDS011;15634;48.766;2.272;2023-02-28T00:03:49;12.20;;;8.20;;
10226;SDS011;15634;48.766;2.272;2023-02-28T00:06:16;13.32;;;7.82;;
10226;SDS011;15634;48.766;2.272;2023-02-28T00:08:43;11.40;;;7.93;;
10226;SDS011;15634;48.766;2.272;2023-02-28T00:11:10;12.15;;;7.43;;
10226;SDS011;15634;48.766;2.272;2023-02-28T00:13:41;11.63;;;7.63;;
10226;SDS011;15634;48.766;2.272;2023-02-28T00:16:09;10.77;;;7.38;;
10226;SDS011;15634;48.766;2.272;2023-02-28T00:18:38;10.32;;;7.60;;
10226;SDS011;15634;48.766;2.272;2023-02-28T00:21:05;11.82;;;8.00;;
10226;SDS011;15634;48.766;2.272;2023-02-28T00:23:32;11.82;;;7.90;;
10226;SDS011;15634;48.766;2.272;2023-02-28T00:25:59;10.65;;;7.43;;
10226;SDS011;15634;48.766;2.272;2023-02-28T00:28:26;10.77;;;7.43;;
10226;SDS011;15634;48.766;2.272;2023-02-28T00:30:54;11.05;;;7.15;;
10226;SDS011;15634;48.766;2.272;2023-02-28T00:33:22;17.05;;;7.53;;
10226;SDS011;15634;48.766;2.272;2023-02-28T00:35:48;10.50;;;7.60;;
10226;SDS011;15634;48.766;2.272;2023-02-28T00:38:15;10.60;;;7.05;;
10226;SDS011;15634;48.766;2.272;2023-02-28T00:40:42;12.30;;;6.90;;
10226;SDS011;15634;48.766;2.272;2023-02-28T00:43:08;12.48;;;7.35;;
10226;SDS011;15634;48.766;2.272;2023-02-28T00:45:35;10.80;;;6.72;;
10226;SDS011;15634;48.766;2.272;2023-02-28T00:48:04;11.13;;;6.70;;
10226;SDS011;15634;48.766;2.272;2023-02-28T00:50:31;10.40;;;6.95;;
10226;SDS011;15634;48.766;2.272;2023-02-28T00:52:57;10.45;;;6.55;;
10226;SDS011;15634;48.766;2.272;2023-02-28T00:55:24;10.43;;;7.20;;
10226;SDS011;15634;48.766;2.272;2023-02-28T00:57:51;12.85;;;6.93;;
10226;SDS011;15634;48.766;2.272;2023-02-28T01:00:17;10.48;;;7.32;;
10226;SDS011;15634;48.766;2.272;2023-02-28T01:02:44;11.93;;;7.35;;
10226;SDS011;15634;48.766;2.272;2023-02-28T01:05:12;10.77;;;6.60;;
10226;SDS011;15634;48.766;2.272;2023-02-28T01:07:39;12.95;;;7.25;;
10226;SDS011;15634;48.766;2.272;2023-02-28T01:10:06;10.32;;;6.55;;
10226;SDS011;15634;48.766;2.272;2023-02-28T01:12:33;11.07;;;7.40;;
10226;SDS011;15634;48.766;2.272;2023-02-28T01:15:00;10.60;;;6.53;;
10226;SDS011;15634;48.766;2.272;2023-02-28T01:17:26;9.05;;;6.07;;
10226;SDS011;15634;48.766;2.272;2023-02-28T01:19:53;9.25;;;6.32;;
10226;SDS011;15634;48.766;2.272;2023-02-28T01:22:22;8.85;;;6.47;;
10226;SDS011;15634;48.766;2.272;2023-02-28T01:24:48;9.18;;;6.40;;
10226;SDS011;15634;48.766;2.272;2023-02-28T01:27:15;8.32;;;5.88;;
10226;SDS011;15634;48.766;2.272;2023-02-28T01:29:42;10.35;;;6.32;;
10226;SDS011;15634;48.766;2.272;2023-02-28T01:32:08;9.63;;;6.57;;
10226;SDS011;15634;48.766;2.272;2023-02-28T01:34:35;8.25;;;5.93;;
10226;SDS011;15634;48.766;2.272;2023-02-28T01:37:01;9.52;;;6.75;;
10226;SDS011;15634;48.766;2.272;2023-02-28T01:39:29;9.57;;;6.25;;
10226;SDS011;15634;48.766;2.272;2023-02-28T01:41:56;8.52;;;4.97;;
10226;SDS011;15634;48.766;2.272;2023-02-28T01:47:27;9.75;;;5.85;;
10226;SDS011;15634;48.766;2.272;2023-02-28T01:49:56;7.10;;;5.15;;
10226;SDS011;15634;48.766;2.272;2023-02-28T01:52:23;11.63;;;5.82;;
10226;SDS011;15634;48.766;2.272;2023-02-28T01:54:53;7.88;;;5.93;;
10226;SDS011;15634;48.766;2.272;2023-02-28T01:57:21;8.65;;;5.70;;
10226;SDS011;15634;48.766;2.272;2023-02-28T01:59:51;7.72;;;5.22;;
10226;SDS011;15634;48.766;2.272;2023-02-28T02:02:20;7.18;;;5.35;;
10226;SDS011;15634;48.766;2.272;2023-02-28T02:04:50;9.75;;;5.65;;
10226;SDS011;15634;48.766;2.272;2023-02-28T02:07:18;7.72;;;5.32;;
10226;SDS011;15634;48.766;2.272;2023-02-28T02:09:44;8.85;;;5.28;;
10226;SDS011;15634;48.766;2.272;2023-02-28T02:12:14;9.55;;;6.03;;
10226;SDS011;15634;48.766;2.272;2023-02-28T02:14:51;7.43;;;5.50;;
10226;SDS011;15634;48.766;2.272;2023-02-28T02:17:26;10.85;;;5.93;;
10226;SDS011;15634;48.766;2.272;2023-02-28T02:20:11;8.45;;;5.47;;
10226;SDS011;15634;48.766;2.272;2023-02-28T02:25:53;10.00;;;5.25;;
10226;SDS011;15634;48.766;2.272;2023-02-28T02:31:17;10.05;;;5.68;;
10226;SDS011;15634;48.766;2.272;2023-02-28T02:44:17;9.07;;;5.60;;
10226;SDS011;15634;48.766;2.272;2023-02-28T02:46:47;6.75;;;4.70;;
10226;SDS011;15634;48.766;2.272;2023-02-28T02:49:15;9.93;;;5.53;;
10226;SDS011;15634;48.766;2.272;2023-02-28T02:51:45;9.82;;;6.00;;
10226;SDS011;15634;48.766;2.272;2023-02-28T02:54:14;7.95;;;5.13;;
10226;SDS011;15634;48.766;2.272;2023-02-28T02:56:44;8.65;;;5.57;;
10226;SDS011;15634;48.766;2.272;2023-02-28T02:59:13;7.60;;;5.43;;
10226;SDS011;15634;48.766;2.272;2023-02-28T03:01:47;8.38;;;5.43;;
10226;SDS011;15634;48.766;2.272;2023-02-28T03:04:16;7.25;;;5.07;;
10226;SDS011;15634;48.766;2.272;2023-02-28T03:06:45;8.10;;;5.20;;
10226;SDS011;15634;48.766;2.272;2023-02-28T03:09:11;10.88;;;5.50;;
10226;SDS011;15634;48.766;2.272;2023-02-28T03:11:38;7.80;;;5.45;;
10226;SDS011;15634;48.766;2.272;2023-02-28T03:14:30;8.68;;;5.03;;
10226;SDS011;15634;48.766;2.272;2023-02-28T03:20:17;6.72;;;5.18;;
10226;SDS011;15634;48.766;2.272;2023-02-28T03:22:52;8.05;;;5.32;;
10226;SDS011;15634;48.766;2.272;2023-02-28T03:25:28;7.30;;;4.97;;
10226;SDS011;15634;48.766;2.272;2023-02-28T03:28:02;8.70;;;5.20;;
10226;SDS011;15634;48.766;2.272;2023-02-28T03:30:34;6.43;;;4.90;;
10226;SDS011;15634;48.766;2.272;2023-02-28T03:33:05;8.73;;;4.97;;
10226;SDS011;15634;48.766;2.272;2023-02-28T03:35:36;8.27;;;5.07;;
10226;SDS011;15634;48.766;2.272;2023-02-28T03:38:06;7.13;;;4.78;;
10226;SDS011;15634;48.766;2.272;2023-02-28T03:40:34;6.03;;;4.53;;
10226;SDS011;15634;48.766;2.272;2023-02-28T03:43:04;8.43;;;4.75;;
10226;SDS011;15634;48.766;2.272;2023-02-28T03:45:36;7.28;;;4.63;;
10226;SDS011;15634;48.766;2.272;2023-02-28T03:48:05;8.27;;;5.05;;
10226;SDS011;15634;48.766;2.272;2023-02-28T03:50:37;8.20;;;4.93;;
10226;SDS011;15634;48.766;2.272;2023-02-28T03:53:07;5.70;;;4.18;;
10226;SDS011;15634;48.766;2.272;2023-02-28T03:55:37;6.93;;;4.63;;
10226;SDS011;15634;48.766;2.272;2023-02-28T03:58:07;6.22;;;4.35;;
10226;SDS011;15634;48.766;2.272;2023-02-28T04:00:39;7.45;;;4.30;;
10226;SDS011;15634;48.766;2.272;2023-02-28T04:03:09;5.93;;;4.25;;
10226;SDS011;15634;48.766;2.272;2023-02-28T04:05:44;7.57;;;4.65;;
10226;SDS011;15634;48.766;2.272;2023-02-28T04:08:14;7.82;;;4.22;;
10226;SDS011;15634;48.766;2.272;2023-02-28T04:10:41;6.78;;;4.68;;
10226;SDS011;15634;48.766;2.272;2023-02-28T04:13:08;7.03;;;4.63;;
10226;SDS011;15634;48.766;2.272;2023-02-28T04:15:35;7.43;;;4.55;;
10226;SDS011;15634;48.766;2.272;2023-02-28T04:18:01;10.43;;;4.70;;
10226;SDS011;15634;48.766;2.272;2023-02-28T04:20:28;6.50;;;4.40;;
10226;SDS011;15634;48.766;2.272;2023-02-28T04:22:56;5.75;;;4.13;;
10226;SDS011;15634;48.766;2.272;2023-02-28T04:25:23;6.45;;;4.25;;
10226;SDS011;15634;48.766;2.272;2023-02-28T04:27:49;8.85;;;4.50;;
10226;SDS011;15634;48.766;2.272;2023-02-28T04:30:16;7.28;;;4.45;;
10226;SDS011;15634;48.766;2.272;2023-02-28T04:32:43;9.50;;;4.63;;
10226;SDS011;15634;48.766;2.272;2023-02-28T04:35:09;7.60;;;4.43;;
10226;SDS011;15634;48.766;2.272;2023-02-28T04:37:36;7.18;;;4.70;;
10226;SDS011;15634;48.766;2.272;2023-02-28T04:40:04;6.47;;;4.43;;
10226;SDS011;15634;48.766;2.272;2023-02-28T04:42:32;8.07;;;4.30;;
10226;SDS011;15634;48.766;2.272;2023-02-28T04:45:00;6.45;;;4.05;;
10226;SDS011;15634;48.766;2.272;2023-02-28T04:47:27;8.88;;;4.55;;
10226;SDS011;15634;48.766;2.272;2023-02-28T04:49:54;6.65;;;4.05;;
10226;SDS011;15634;48.766;2.272;2023-02-28T04:52:21;6.30;;;4.50;;
10226;SDS011;15634;48.766;2.272;2023-02-28T04:54:47;7.00;;;4.03;;
10226;SDS011;15634;48.766;2.272;2023-02-28T04:57:15;8.00;;;3.90;;
10226;SDS011;15634;48.766;2.272;2023-02-28T04:59:42;6.10;;;4.22;;
10226;SDS011;15634;48.766;2.272;2023-02-28T05:02:09;9.18;;;4.25;;
10226;SDS011;15634;48.766;2.272;2023-02-28T05:04:35;6.13;;;4.13;;
10226;SDS011;15634;48.766;2.272;2023-02-28T05:07:02;6.97;;;4.43;;
10226;SDS011;15634;48.766;2.272;2023-02-28T05:09:29;9.35;;;3.90;;
10226;SDS011;15634;48.766;2.272;2023-02-28T05:11:55;7.22;;;4.47;;
10226;SDS011;15634;48.766;2.272;2023-02-28T05:14:24;7.10;;;4.35;;
10226;SDS011;15634;48.766;2.272;2023-02-28T05:16:51;8.30;;;4.85;;
10226;SDS011;15634;48.766;2.272;2023-02-28T05:19:17;6.70;;;4.50;;
10226;SDS011;15634;48.766;2.272;2023-02-28T05:21:49;6.97;;;4.30;;
10226;SDS011;15634;48.766;2.272;2023-02-28T05:24:17;7.18;;;3.90;;
10226;SDS011;15634;48.766;2.272;2023-02-28T05:26:47;6.82;;;4.13;;
10226;SDS011;15634;48.766;2.272;2023-02-28T05:29:15;5.82;;;4.05;;
10226;SDS011;15634;48.766;2.272;2023-02-28T05:31:43;6.78;;;4.25;;
10226;SDS011;15634;48.766;2.272;2023-02-28T05:34:09;8.77;;;4.40;;
10226;SDS011;15634;48.766;2.272;2023-02-28T05:36:37;5.97;;;4.05;;
10226;SDS011;15634;48.766;2.272;2023-02-28T05:39:05;10.52;;;3.75;;
10226;SDS011;15634;48.766;2.272;2023-02-28T05:41:32;7.55;;;4.28;;
10226;SDS011;15634;48.766;2.272;2023-02-28T05:43:58;6.07;;;3.83;;
10226;SDS011;15634;48.766;2.272;2023-02-28T05:46:26;9.63;;;4.13;;
10226;SDS011;15634;48.766;2.272;2023-02-28T05:48:54;6.85;;;4.75;;
10226;SDS011;15634;48.766;2.272;2023-02-28T05:51:21;6.47;;;4.47;;
10226;SDS011;15634;48.766;2.272;2023-02-28T05:53:48;7.05;;;4.95;;
10226;SDS011;15634;48.766;2.272;2023-02-28T05:56:14;11.05;;;5.90;;
10226;SDS011;15634;48.766;2.272;2023-02-28T05:58:41;8.05;;;5.20;;
10226;SDS011;15634;48.766;2.272;2023-02-28T06:01:21;9.40;;;5.47;;
10226;SDS011;15634;48.766;2.272;2023-02-28T06:03:50;11.43;;;5.05;;
10226;SDS011;15634;48.766;2.272;2023-02-28T06:06:18;12.68;;;5.75;;
10226;SDS011;15634;48.766;2.272;2023-02-28T06:08:44;10.65;;;5.57;;
10226;SDS011;15634;48.766;2.272;2023-02-28T06:11:11;7.88;;;5.30;;
10226;SDS011;15634;48.766;2.272;2023-02-28T06:13:38;8.32;;;4.57;;
10226;SDS011;15634;48.766;2.272;2023-02-28T06:16:05;8.43;;;5.75;;
10226;SDS011;15634;48.766;2.272;2023-02-28T06:18:32;8.88;;;5.40;;
10226;SDS011;15634;48.766;2.272;2023-02-28T06:20:59;9.35;;;5.55;;
10226;SDS011;15634;48.766;2.272;2023-02-28T06:23:27;10.43;;;5.60;;
10226;SDS011;15634;48.766;2.272;2023-02-28T06:25:53;10.60;;;6.07;;
10226;SDS011;15634;48.766;2.272;2023-02-28T06:28:23;9.57;;;5.90;;
10226;SDS011;15634;48.766;2.272;2023-02-28T06:30:50;9.32;;;5.93;;
10226;SDS011;15634;48.766;2.272;2023-02-28T06:33:16;12.75;;;7.20;;
10226;SDS011;15634;48.766;2.272;2023-02-28T06:35:43;12.40;;;8.07;;
10226;SDS011;15634;48.766;2.272;2023-02-28T06:38:10;19.07;;;10.07;;
10226;SDS011;15634;48.766;2.272;2023-02-28T06:40:38;16.10;;;9.32;;
10226;SDS011;15634;48.766;2.272;2023-02-28T06:43:04;19.77;;;10.35;;
10226;SDS011;15634;48.766;2.272;2023-02-28T06:45:32;12.80;;;8.88;;
10226;SDS011;15634;48.766;2.272;2023-02-28T06:47:58;14.13;;;8.82;;
10226;SDS011;15634;48.766;2.272;2023-02-28T06:50:25;15.60;;;9.65;;
10226;SDS011;15634;48.766;2.272;2023-02-28T06:52:54;16.42;;;9.40;;
10226;SDS011;15634;48.766;2.272;2023-02-28T06:55:21;15.45;;;9.90;;
10226;SDS011;15634;48.766;2.272;2023-02-28T06:57:49;15.75;;;10.05;;
10226;SDS011;15634;48.766;2.272;2023-02-28T07:00:16;15.13;;;10.10;;
10226;SDS011;15634;48.766;2.272;2023-02-28T07:02:43;17.85;;;10.88;;
10226;SDS011;15634;48.766;2.272;2023-02-28T07:05:09;14.48;;;9.07;;
10226;SDS011;15634;48.766;2.272;2023-02-28T07:07:36;16.35;;;10.93;;
10226;SDS011;15634;48.766;2.272;2023-02-28T07:10:05;15.07;;;9.52;;
10226;SDS011;15634;48.766;2.272;2023-02-28T07:12:32;14.25;;;10.07;;
10226;SDS011;15634;48.766;2.272;2023-02-28T07:15:00;16.40;;;10.40;;
10226;SDS011;15634;48.766;2.272;2023-02-28T07:17:27;16.02;;;9.75;;
10226;SDS011;15634;48.766;2.272;2023-02-28T07:19:53;22.15;;;11.05;;
10226;SDS011;15634;48.766;2.272;2023-02-28T07:22:20;18.70;;;11.30;;
10226;SDS011;15634;48.766;2.272;2023-02-28T07:24:47;16.48;;;11.13;;
10226;SDS011;15634;48.766;2.272;2023-02-28T07:27:13;18.65;;;11.00;;
10226;SDS011;15634;48.766;2.272;2023-02-28T07:29:48;17.45;;;10.38;;
10226;SDS011;15634;48.766;2.272;2023-02-28T07:32:16;16.55;;;10.75;;
10226;SDS011;15634;48.766;2.272;2023-02-28T07:34:43;16.83;;;11.82;;
10226;SDS011;15634;48.766;2.272;2023-02-28T07:37:10;15.30;;;10.05;;
10226;SDS011;15634;48.766;2.272;2023-02-28T07:39:37;19.30;;;11.98;;
10226;SDS011;15634;48.766;2.272;2023-02-28T07:42:04;15.85;;;10.88;;
10226;SDS011;15634;48.766;2.272;2023-02-28T07:44:31;20.65;;;11.57;;
10226;SDS011;15634;48.766;2.272;2023-02-28T07:46:57;18.13;;;10.88;;
10226;SDS011;15634;48.766;2.272;2023-02-28T07:49:25;15.68;;;10.77;;
10226;SDS011;15634;48.766;2.272;2023-02-28T07:51:52;20.92;;;11.45;;
10226;SDS011;15634;48.766;2.272;2023-02-28T07:54:19;19.17;;;11.23;;
10226;SDS011;15634;48.766;2.272;2023-02-28T07:56:45;18.00;;;11.15;;
10226;SDS011;15634;48.766;2.272;2023-02-28T07:59:13;17.88;;;11.15;;
10226;SDS011;15634;48.766;2.272;2023-02-28T08:01:40;15.10;;;10.27;;
10226;SDS011;15634;48.766;2.272;2023-02-28T08:04:09;20.08;;;11.95;;
10226;SDS011;15634;48.766;2.272;2023-02-28T08:06:37;17.60;;;10.93;;
10226;SDS011;15634;48.766;2.272;2023-02-28T08:09:03;20.05;;;11.30;;
10226;SDS011;15634;48.766;2.272;2023-02-28T08:11:31;18.13;;;10.75;;
10226;SDS011;15634;48.766;2.272;2023-02-28T08:13:57;16.13;;;11.23;;
10226;SDS011;15634;48.766;2.272;2023-02-28T08:16:24;20.33;;;11.20;;
10226;SDS011;15634;48.766;2.272;2023-02-28T08:18:51;16.85;;;10.70;;
10226;SDS011;15634;48.766;2.272;2023-02-28T08:21:18;18.65;;;10.98;;
10226;SDS011;15634;48.766;2.272;2023-02-28T08:23:47;17.80;;;11.25;;
10226;SDS011;15634;48.766;2.272;2023-02-28T08:26:15;19.20;;;11.07;;
10226;SDS011;15634;48.766;2.272;2023-02-28T08:28:42;15.77;;;9.02;;
10226;SDS011;15634;48.766;2.272;2023-02-28T08:31:09;16.88;;;8.93;;
10226;SDS011;15634;48.766;2.272;2023-02-28T08:33:37;18.88;;;11.65;;
10226;SDS011;15634;48.766;2.272;2023-02-28T08:36:05;16.13;;;9.77;;
10226;SDS011;15634;48.766;2.272;2023-02-28T08:38:33;16.45;;;11.30;;
10226;SDS011;15634;48.766;2.272;2023-02-28T08:41:02;20.05;;;10.77;;
10226;SDS011;15634;48.766;2.272;2023-02-28T08:43:32;16.63;;;11.25;;
10226;SDS011;15634;48.766;2.272;2023-02-28T08:45:59;16.95;;;10.98;;
10226;SDS011;15634;48.766;2.272;2023-02-28T08:48:26;20.10;;;10.57;;
10226;SDS011;15634;48.766;2.272;2023-02-28T08:50:54;15.75;;;10.27;;
10226;SDS011;15634;48.766;2.272;2023-02-28T08:53:21;18.75;;;11.38;;
10226;SDS011;15634;48.766;2.272;2023-02-28T08:55:55;17.13;;;9.88;;
10226;SDS011;15634;48.766;2.272;2023-02-28T08:58:23;14.88;;;10.15;;
10226;SDS011;15634;48.766;2.272;2023-02-28T09:00:50;16.20;;;11.18;;
10226;SDS011;15634;48.766;2.272;2023-02-28T09:03:16;16.20;;;9.63;;
10226;SDS011;15634;48.766;2.272;2023-02-28T09:05:51;16.67;;;9.60;;
10226;SDS011;15634;48.766;2.272;2023-02-28T09:08:18;17.73;;;10.63;;
10226;SDS011;15634;48.766;2.272;2023-02-28T09:10:44;17.50;;;10.02;;
10226;SDS011;15634;48.766;2.272;2023-02-28T09:13:12;16.60;;;9.55;;
10226;SDS011;15634;48.766;2.272;2023-02-28T09:15:40;16.00;;;9.13;;
10226;SDS011;15634;48.766;2.272;2023-02-28T09:18:06;15.73;;;9.38;;
10226;SDS011;15634;48.766;2.272;2023-02-28T09:20:33;16.05;;;9.05;;
10226;SDS011;15634;48.766;2.272;2023-02-28T09:23:00;12.70;;;8.05;;
10226;SDS011;15634;48.766;2.272;2023-02-28T09:25:27;15.10;;;9.25;;
10226;SDS011;15634;48.766;2.272;2023-02-28T09:27:53;14.80;;;9.23;;
10226;SDS011;15634;48.766;2.272;2023-02-28T09:30:20;16.25;;;9.23;;
10226;SDS011;15634;48.766;2.272;2023-02-28T09:32:48;15.50;;;9.02;;
10226;SDS011;15634;48.766;2.272;2023-02-28T09:35:17;13.95;;;8.70;;
10226;SDS011;15634;48.766;2.272;2023-02-28T09:37:44;20.17;;;9.27;;
10226;SDS011;15634;48.766;2.272;2023-02-28T09:40:11;15.45;;;9.02;;
10226;SDS011;15634;48.766;2.272;2023-02-28T09:42:39;13.57;;;9.20;;
10226;SDS011;15634;48.766;2.272;2023-02-28T09:45:21;16.17;;;9.73;;
10226;SDS011;15634;48.766;2.272;2023-02-28T09:47:51;13.38;;;8.32;;
10226;SDS011;15634;48.766;2.272;2023-02-28T09:50:21;15.20;;;8.93;;
10226;SDS011;15634;48.766;2.272;2023-02-28T09:52:55;12.57;;;7.75;;
10226;SDS011;15634;48.766;2.272;2023-02-28T09:55:24;10.40;;;7.43;;
10226;SDS011;15634;48.766;2.272;2023-02-28T09:57:54;14.90;;;8.00;;
10226;SDS011;15634;48.766;2.272;2023-02-28T10:00:22;13.52;;;8.30;;
10226;SDS011;15634;48.766;2.272;2023-02-28T10:03:02;11.48;;;7.85;;
10226;SDS011;15634;48.766;2.272;2023-02-28T10:05:33;10.68;;;7.75;;
10226;SDS011;15634;48.766;2.272;2023-02-28T10:08:04;13.63;;;8.60;;
10226;SDS011;15634;48.766;2.272;2023-02-28T10:10:37;16.92;;;9.05;;
10226;SDS011;15634;48.766;2.272;2023-02-28T10:13:11;11.80;;;8.15;;
10226;SDS011;15634;48.766;2.272;2023-02-28T10:15:41;11.55;;;8.10;;
10226;SDS011;15634;48.766;2.272;2023-02-28T10:18:10;14.00;;;8.77;;
10226;SDS011;15634;48.766;2.272;2023-02-28T10:20:39;13.65;;;9.18;;
10226;SDS011;15634;48.766;2.272;2023-02-28T10:23:09;20.17;;;11.77;;
10226;SDS011;15634;48.766;2.272;2023-02-28T10:25:38;18.40;;;10.27;;
10226;SDS011;15634;48.766;2.272;2023-02-28T10:28:09;13.10;;;8.63;;
10226;SDS011;15634;48.766;2.272;2023-02-28T10:30:36;15.13;;;8.73;;
10226;SDS011;15634;48.766;2.272;2023-02-28T10:33:09;12.80;;;8.07;;
10226;SDS011;15634;48.766;2.272;2023-02-28T10:35:44;11.25;;;7.70;;
10226;SDS011;15634;48.766;2.272;2023-02-28T10:38:16;12.43;;;7.18;;
10226;SDS011;15634;48.766;2.272;2023-02-28T10:40:43;11.32;;;7.35;;
10226;SDS011;15634;48.766;2.272;2023-02-28T10:43:20;14.02;;;7.47;;
10226;SDS011;15634;48.766;2.272;2023-02-28T10:45:55;8.90;;;6.65;;
10226;SDS011;15634;48.766;2.272;2023-02-28T10:48:31;13.57;;;7.78;;
10226;SDS011;15634;48.766;2.272;2023-02-28T10:51:00;12.80;;;6.68;;
10226;SDS011;15634;48.766;2.272;2023-02-28T10:53:33;9.10;;;6.20;;
10226;SDS011;15634;48.766;2.272;2023-02-28T10:56:03;11.15;;;6.45;;
10226;SDS011;15634;48.766;2.272;2023-02-28T10:58:33;8.65;;;6.07;;
10226;SDS011;15634;48.766;2.272;2023-02-28T11:01:12;11.40;;;6.40;;
10226;SDS011;15634;48.766;2.272;2023-02-28T11:03:42;13.05;;;5.70;;
10226;SDS011;15634;48.766;2.272;2023-02-28T11:06:13;8.48;;;5.03;;
10226;SDS011;15634;48.766;2.272;2023-02-28T11:08:46;6.95;;;4.75;;
10226;SDS011;15634;48.766;2.272;2023-02-28T11:11:14;8.70;;;5.35;;
10226;SDS011;15634;48.766;2.272;2023-02-28T11:13:43;9.15;;;5.15;;
10226;SDS011;15634;48.766;2.272;2023-02-28T11:16:11;6.00;;;4.35;;
10226;SDS011;15634;48.766;2.272;2023-02-28T11:18:40;6.05;;;3.83;;
10226;SDS011;15634;48.766;2.272;2023-02-28T11:21:14;7.03;;;4.97;;
10226;SDS011;15634;48.766;2.272;2023-02-28T11:23:43;8.80;;;4.75;;
10226;SDS011;15634;48.766;2.272;2023-02-28T11:26:10;9.13;;;5.95;;
10226;SDS011;15634;48.766;2.272;2023-02-28T11:28:37;9.60;;;5.10;;
10226;SDS011;15634;48.766;2.272;2023-02-28T11:31:14;6.53;;;4.50;;
10226;SDS011;15634;48.766;2.272;2023-02-28T11:33:44;6.30;;;4.07;;
10226;SDS011;15634;48.766;2.272;2023-02-28T11:36:14;7.85;;;4.70;;
10226;SDS011;15634;48.766;2.272;2023-02-28T11:38:42;6.68;;;4.18;;
10226;SDS011;15634;48.766;2.272;2023-02-28T11:44:06;7.65;;;5.25;;
10226;SDS011;15634;48.766;2.272;2023-02-28T11:46:47;9.15;;;5.50;;
10226;SDS011;15634;48.766;2.272;2023-02-28T11:49:21;7.43;;;5.07;;
10226;SDS011;15634;48.766;2.272;2023-02-28T11:51:53;9.40;;;5.57;;
10226;SDS011;15634;48.766;2.272;2023-02-28T11:54:40;8.07;;;5.72;;
10226;SDS011;15634;48.766;2.272;2023-02-28T11:57:22;9.85;;;6.40;;
10226;SDS011;15634;48.766;2.272;2023-02-28T11:59:58;8.60;;;5.43;;
10226;SDS011;15634;48.766;2.272;2023-02-28T12:02:29;7.23;;;4.77;;
10226;SDS011;15634;48.766;2.272;2023-02-28T12:05:15;7.50;;;5.15;;
10226;SDS011;15634;48.766;2.272;2023-02-28T12:07:50;6.95;;;5.07;;
10226;SDS011;15634;48.766;2.272;2023-02-28T12:10:25;6.85;;;4.85;;
10226;SDS011;15634;48.766;2.272;2023-02-28T12:13:02;10.32;;;5.18;;
10226;SDS011;15634;48.766;2.272;2023-02-28T12:15:39;10.65;;;6.22;;
10226;SDS011;15634;48.766;2.272;2023-02-28T12:18:21;8.23;;;5.05;;
10226;SDS011;15634;48.766;2.272;2023-02-28T12:20:59;7.55;;;5.63;;
10226;SDS011;15634;48.766;2.272;2023-02-28T12:23:38;9.32;;;5.47;;
10226;SDS011;15634;48.766;2.272;2023-02-28T12:26:15;6.55;;;5.13;;
10226;SDS011;15634;48.766;2.272;2023-02-28T12:28:47;9.68;;;5.47;;
10226;SDS011;15634;48.766;2.272;2023-02-28T12:31:18;7.18;;;5.22;;
10226;SDS011;15634;48.766;2.272;2023-02-28T12:33:47;6.47;;;4.10;;
10226;SDS011;15634;48.766;2.272;2023-02-28T12:36:19;7.45;;;4.68;;
10226;SDS011;15634;48.766;2.272;2023-02-28T12:38:48;8.52;;;4.60;;
10226;SDS011;15634;48.766;2.272;2023-02-28T12:41:18;5.53;;;4.18;;
10226;SDS011;15634;48.766;2.272;2023-02-28T12:43:48;6.47;;;4.95;;
10226;SDS011;15634;48.766;2.272;2023-02-28T12:46:17;10.90;;;5.28;;
10226;SDS011;15634;48.766;2.272;2023-02-28T12:48:47;7.55;;;4.95;;
10226;SDS011;15634;48.766;2.272;2023-02-28T12:51:16;7.70;;;5.13;;
10226;SDS011;15634;48.766;2.272;2023-02-28T12:53:49;8.25;;;5.15;;
10226;SDS011;15634;48.766;2.272;2023-02-28T12:56:23;7.57;;;5.30;;
10226;SDS011;15634;48.766;2.272;2023-02-28T12:59:00;7.85;;;5.32;;
10226;SDS011;15634;48.766;2.272;2023-02-28T13:04:42;6.57;;;4.82;;
10226;SDS011;15634;48.766;2.272;2023-02-28T13:10:50;7.05;;;4.95;;
10226;SDS011;15634;48.766;2.272;2023-02-28T13:13:19;10.07;;;5.20;;
10226;SDS011;15634;48.766;2.272;2023-02-28T13:16:01;7.88;;;5.15;;
10226;SDS011;15634;48.766;2.272;2023-02-28T13:18:31;7.93;;;4.53;;
10226;SDS011;15634;48.766;2.272;2023-02-28T13:21:01;6.60;;;4.80;;
10226;SDS011;15634;48.766;2.272;2023-02-28T13:23:36;7.53;;;4.65;;
10226;SDS011;15634;48.766;2.272;2023-02-28T13:26:07;6.45;;;4.80;;
10226;SDS011;15634;48.766;2.272;2023-02-28T13:34:49;7.03;;;4.45;;
10226;SDS011;15634;48.766;2.272;2023-02-28T13:37:42;6.53;;;4.50;;
10226;SDS011;15634;48.766;2.272;2023-02-28T13:43:06;6.82;;;4.57;;
10226;SDS011;15634;48.766;2.272;2023-02-28T13:45:35;6.70;;;4.88;;
10226;SDS011;15634;48.766;2.272;2023-02-28T13:48:04;6.35;;;3.85;;
10226;SDS011;15634;48.766;2.272;2023-02-28T13:50:34;7.32;;;4.95;;
10226;SDS011;15634;48.766;2.272;2023-02-28T13:55:57;5.93;;;4.60;;
10226;SDS011;15634;48.766;2.272;2023-02-28T13:58:36;6.80;;;4.78;;
10226;SDS011;15634;48.766;2.272;2023-02-28T14:01:22;9.18;;;5.07;;
10226;SDS011;15634;48.766;2.272;2023-02-28T14:04:08;9.65;;;5.15;;
10226;SDS011;15634;48.766;2.272;2023-02-28T14:06:46;6.53;;;4.70;;
10226;SDS011;15634;48.766;2.272;2023-02-28T14:09:16;8.07;;;4.97;;
10226;SDS011;15634;48.766;2.272;2023-02-28T14:11:46;6.17;;;4.30;;
10226;SDS011;15634;48.766;2.272;2023-02-28T14:17:12;7.10;;;4.95;;
10226;SDS011;15634;48.766;2.272;2023-02-28T14:19:41;6.85;;;4.50;;
10226;SDS011;15634;48.766;2.272;2023-02-28T14:22:15;6.78;;;4.53;;
10226;SDS011;15634;48.766;2.272;2023-02-28T14:24:51;7.18;;;4.85;;
10226;SDS011;15634;48.766;2.272;2023-02-28T14:27:32;7.03;;;4.53;;
10226;SDS011;15634;48.766;2.272;2023-02-28T14:30:09;5.85;;;4.22;;
10226;SDS011;15634;48.766;2.272;2023-02-28T14:32:43;5.93;;;4.32;;
10226;SDS011;15634;48.766;2.272;2023-02-28T14:35:16;5.88;;;4.32;;
10226;SDS011;15634;48.766;2.272;2023-02-28T14:37:48;7.13;;;4.38;;
10226;SDS011;15634;48.766;2.272;2023-02-28T14:40:15;6.53;;;4.50;;
10226;SDS011;15634;48.766;2.272;2023-02-28T14:42:46;6.45;;;4.25;;
10226;SDS011;15634;48.766;2.272;2023-02-28T14:45:17;8.52;;;4.63;;
10226;SDS011;15634;48.766;2.272;2023-02-28T14:47:46;5.78;;;4.40;;
10226;SDS011;15634;48.766;2.272;2023-02-28T14:50:17;5.40;;;4.05;;
10226;SDS011;15634;48.766;2.272;2023-02-28T14:52:44;5.82;;;4.20;;
10226;SDS011;15634;48.766;2.272;2023-02-28T14:55:12;6.40;;;4.80;;
10226;SDS011;15634;48.766;2.272;2023-02-28T14:57:41;6.45;;;4.03;;
10226;SDS011;15634;48.766;2.272;2023-02-28T15:00:22;6.60;;;4.22;;
10226;SDS011;15634;48.766;2.272;2023-02-28T15:02:52;6.53;;;4.70;;
10226;SDS011;15634;48.766;2.272;2023-02-28T15:05:26;6.20;;;4.45;;
10226;SDS011;15634;48.766;2.272;2023-02-28T15:08:01;5.55;;;4.18;;
10226;SDS011;15634;48.766;2.272;2023-02-28T15:10:30;8.15;;;4.95;;
10226;SDS011;15634;48.766;2.272;2023-02-28T15:12:58;5.68;;;4.22;;
10226;SDS011;15634;48.766;2.272;2023-02-28T15:15:26;4.88;;;4.07;;
10226;SDS011;15634;48.766;2.272;2023-02-28T15:17:56;6.63;;;4.25;;
10226;SDS011;15634;48.766;2.272;2023-02-28T15:20:24;7.38;;;4.53;;
10226;SDS011;15634;48.766;2.272;2023-02-28T15:22:51;6.55;;;4.75;;
10226;SDS011;15634;48.766;2.272;2023-02-28T15:25:19;5.80;;;4.57;;
10226;SDS011;15634;48.766;2.272;2023-02-28T15:27:48;6.65;;;4.40;;
10226;SDS011;15634;48.766;2.272;2023-02-28T15:30:17;6.65;;;4.28;;
10226;SDS011;15634;48.766;2.272;2023-02-28T15:33:01;6.40;;;4.55;;
10226;SDS011;15634;48.766;2.272;2023-02-28T15:35:32;6.53;;;4.00;;
10226;SDS011;15634;48.766;2.272;2023-02-28T15:38:00;8.27;;;4.88;;
10226;SDS011;15634;48.766;2.272;2023-02-28T15:40:28;5.80;;;4.35;;
10226;SDS011;15634;48.766;2.272;2023-02-28T15:43:03;6.40;;;4.53;;